Time;durP1;ratioP1;P1;durP2;ratioP2;P2;SDS_P1;SDS_P2;PMS_P1;PMS_P2;Temp;Humidity;BMP_temperature;BMP_pressure;BME280_temperature;BME280_humidity;BME280_pressure;Samples;Min_cycle;Max_cycle;Signal;HPM_P1;HPM_P2
2021/01/25 00:00:56;;;;;;;4.47;4.00;;;2.50;99.90;;;;;;5004592;28;20489;-49
2021/01/25 00:03:23;;;;;;;5.33;4.10;;;2.60;99.90;;;;;;5002187;28;20558;-49
2021/01/25 00:05:51;;;;;;;6.30;4.13;;;2.40;99.90;;;;;;5007234;28;20477;-50
2021/01/25 00:08:18;;;;;;;4.17;3.77;;;2.40;99.90;;;;;;5004742;28;20525;-49
2021/01/25 00:10:45;;;;;;;5.20;3.80;;;2.40;99.90;;;;;;5008134;28;21002;-49
2021/01/25 00:13:13;;;;;;;5.77;4.23;;;2.40;99.90;;;;;;5002392;28;20477;-49
2021/01/25 00:15:41;;;;;;;6.00;4.80;;;2.40;99.90;;;;;;4989527;28;20502;-49
2021/01/25 00:18:09;;;;;;;6.13;3.93;;;2.40;99.90;;;;;;4991779;28;20505;-49
2021/01/25 00:20:36;;;;;;;5.10;4.43;;;2.50;99.90;;;;;;5010534;28;20968;-49
2021/01/25 00:23:04;;;;;;;7.87;4.90;;;2.50;99.90;;;;;;5011537;28;20478;-49
2021/01/25 00:25:32;;;;;;;6.37;5.17;;;2.60;99.90;;;;;;5011264;28;20539;-49
2021/01/25 00:27:59;;;;;;;6.47;5.13;;;2.50;99.90;;;;;;5013446;28;20980;-49
2021/01/25 00:30:27;;;;;;;6.97;5.10;;;2.70;99.90;;;;;;5011605;28;22734;-49
2021/01/25 00:32:55;;;;;;;8.10;5.23;;;2.70;99.90;;;;;;5011310;28;20542;-49
2021/01/25 00:35:23;;;;;;;7.87;5.73;;;2.70;99.90;;;;;;5010796;28;20488;-49
2021/01/25 00:37:50;;;;;;;6.07;4.97;;;2.70;99.90;;;;;;5011185;28;21240;-49
2021/01/25 00:40:17;;;;;;;5.93;4.60;;;2.60;99.90;;;;;;5011321;28;20534;-49
2021/01/25 00:42:45;;;;;;;5.73;4.83;;;2.50;99.90;;;;;;5010551;28;20893;-49
2021/01/25 00:45:14;;;;;;;5.87;5.10;;;2.50;99.90;;;;;;5010842;28;21027;-51
2021/01/25 00:47:41;;;;;;;6.47;5.60;;;2.40;99.90;;;;;;5011188;28;20849;-49
2021/01/25 00:50:10;;;;;;;7.40;5.43;;;2.40;99.90;;;;;;5011477;28;20933;-49
2021/01/25 00:52:38;;;;;;;6.10;5.20;;;2.40;99.90;;;;;;4993978;28;20967;-49
2021/01/25 00:55:10;;;;;;;8.77;5.40;;;2.40;99.90;;;;;;4989990;28;20612;-49
2021/01/25 00:57:39;;;;;;;8.77;5.47;;;2.40;99.90;;;;;;5004810;28;20472;-49
2021/01/25 01:00:09;;;;;;;7.80;5.37;;;2.40;99.90;;;;;;5011035;28;20521;-49
2021/01/25 01:02:37;;;;;;;6.97;5.70;;;2.30;99.90;;;;;;5010558;28;20816;-49
2021/01/25 01:05:07;;;;;;;8.07;5.30;;;2.30;99.90;;;;;;5010530;28;20988;-49
2021/01/25 01:07:35;;;;;;;7.30;5.63;;;2.30;99.90;;;;;;5007418;28;20582;-49
2021/01/25 01:10:06;;;;;;;7.63;5.47;;;2.30;99.90;;;;;;5011010;28;20506;-49
2021/01/25 01:12:34;;;;;;;7.03;6.00;;;2.40;99.90;;;;;;5010123;28;20480;-49
2021/01/25 01:15:08;;;;;;;9.17;6.60;;;2.40;99.90;;;;;;5010153;28;20477;-49
2021/01/25 01:17:35;;;;;;;10.20;6.83;;;2.40;99.90;;;;;;5009353;28;20522;-49
2021/01/25 01:20:03;;;;;;;7.87;6.43;;;2.50;99.90;;;;;;5005608;28;20821;-49
2021/01/25 01:22:31;;;;;;;7.67;6.40;;;2.40;99.90;;;;;;5010665;28;21036;-49
2021/01/25 01:24:59;;;;;;;8.70;6.23;;;2.40;99.90;;;;;;5009565;28;20903;-49
2021/01/25 01:27:27;;;;;;;7.53;6.17;;;2.40;99.90;;;;;;5009810;28;20541;-49
2021/01/25 01:29:54;;;;;;;8.87;6.87;;;2.30;99.90;;;;;;5010737;28;20476;-49
2021/01/25 01:32:22;;;;;;;11.10;8.07;;;2.80;99.90;;;;;;5012837;28;20585;-49
2021/01/25 01:34:49;;;;;;;13.23;7.80;;;2.90;99.90;;;;;;5010185;28;20847;-49
2021/01/25 01:37:17;;;;;;;11.10;7.87;;;3.00;99.90;;;;;;5009698;28;20506;-49
2021/01/25 01:39:44;;;;;;;8.00;6.77;;;2.70;99.90;;;;;;5012547;28;20491;-49
2021/01/25 01:42:31;;;;;;;9.71;7.81;;;2.60;99.90;;;;;;4537580;28;10001488;-49
2021/01/25 01:45:01;;;;;;;9.95;7.28;;;2.70;99.90;;;;;;2072897;28;10002055;-49
2021/01/25 01:47:29;;;;;;;11.97;8.23;;;2.70;99.90;;;;;;5009962;28;20243;-50
2021/01/25 01:49:57;;;;;;;11.40;8.33;;;2.70;99.90;;;;;;5009937;28;20529;-49
2021/01/25 01:52:24;;;;;;;9.77;7.47;;;2.70;99.90;;;;;;5010016;28;20532;-49
2021/01/25 01:54:57;;;;;;;12.07;7.70;;;2.60;99.90;;;;;;5009334;28;20534;-49
2021/01/25 01:57:24;;;;;;;9.80;7.37;;;2.60;99.90;;;;;;5009725;28;20558;-49
2021/01/25 01:59:53;;;;;;;10.57;8.47;;;2.50;99.90;;;;;;5009898;28;20473;-50
2021/01/25 02:02:21;;;;;;;10.90;7.80;;;2.40;99.90;;;;;;5005531;28;21013;-49
2021/01/25 02:04:49;;;;;;;10.80;8.53;;;2.40;99.90;;;;;;5006675;28;20480;-49
2021/01/25 02:07:17;;;;;;;12.17;7.83;;;2.30;99.90;;;;;;5008815;28;20482;-50
2021/01/25 02:09:47;;;;;;;11.77;8.40;;;2.30;99.90;;;;;;5010017;28;20557;-49
2021/01/25 02:12:17;;;;;;;10.17;9.07;;;2.40;99.90;;;;;;5009923;28;20580;-49
2021/01/25 02:14:45;;;;;;;11.00;8.60;;;2.30;99.90;;;;;;5004635;28;20477;-49
2021/01/25 02:17:15;;;;;;;11.47;9.80;;;2.20;99.90;;;;;;5008685;28;20505;-50
2021/01/25 02:19:55;;;;;;;12.23;9.60;;;2.20;99.90;;;;;;5009656;28;20472;-49
2021/01/25 02:22:59;;;;;;;13.13;10.63;;;2.10;99.90;;;;;;5009513;28;20992;-49
2021/01/25 02:25:46;;;;;;;12.37;9.70;;;2.20;99.90;;;;;;5008360;28;20804;-49
2021/01/25 02:28:14;;;;;;;12.73;10.87;;;2.20;99.90;;;;;;5009350;28;20483;-49
2021/01/25 02:30:42;;;;;;;12.80;11.37;;;2.10;99.90;;;;;;5012268;28;20477;-48
2021/01/25 02:33:11;;;;;;;13.10;11.47;;;2.00;99.90;;;;;;5007178;28;20883;-49
2021/01/25 02:35:39;;;;;;;13.80;11.23;;;2.00;99.90;;;;;;5008440;28;20472;-49
2021/01/25 02:38:10;;;;;;;17.73;13.67;;;2.10;99.90;;;;;;5008663;28;20507;-49
2021/01/25 02:40:38;;;;;;;16.90;13.73;;;2.30;99.90;;;;;;5009294;28;20505;-49
2021/01/25 02:43:07;;;;;;;14.63;12.40;;;2.20;99.90;;;;;;5009495;28;20474;-50
2021/01/25 02:45:35;;;;;;;15.20;12.30;;;2.20;99.90;;;;;;4997550;28;20476;-49
2021/01/25 02:48:03;;;;;;;14.87;11.70;;;2.20;99.90;;;;;;5008802;28;20543;-49
2021/01/25 02:50:36;;;;;;;14.37;12.10;;;2.10;99.90;;;;;;5011671;28;21013;-48
2021/01/25 02:53:05;;;;;;;16.07;13.60;;;2.20;99.90;;;;;;5008997;28;20456;-49
2021/01/25 02:55:32;;;;;;;15.47;13.10;;;2.20;99.90;;;;;;5008637;28;20469;-50
2021/01/25 02:58:01;;;;;;;15.73;12.40;;;2.20;99.90;;;;;;5008556;28;20500;-49
2021/01/25 03:00:29;;;;;;;14.73;13.07;;;2.10;99.90;;;;;;5007305;28;20841;-49
2021/01/25 03:02:58;;;;;;;17.60;12.80;;;2.10;99.90;;;;;;5007083;28;20511;-49
2021/01/25 03:05:25;;;;;;;17.23;14.37;;;2.10;99.90;;;;;;5008325;28;20474;-49
2021/01/25 03:07:53;;;;;;;17.00;14.73;;;2.20;99.90;;;;;;5008303;28;20479;-49
2021/01/25 03:10:20;;;;;;;16.30;14.07;;;2.20;99.90;;;;;;5008104;28;20472;-49
2021/01/25 03:12:48;;;;;;;19.07;14.13;;;2.20;99.90;;;;;;5003959;28;20984;-49
2021/01/25 03:15:18;;;;;;;18.90;14.00;;;2.10;99.90;;;;;;5006121;28;21082;-49
2021/01/25 03:17:45;;;;;;;17.60;13.03;;;2.20;99.90;;;;;;5007808;28;20506;-49
2021/01/25 03:20:14;;;;;;;17.50;13.90;;;2.10;99.90;;;;;;5008590;28;20473;-49
2021/01/25 03:22:41;;;;;;;15.50;13.20;;;2.20;99.90;;;;;;5008536;28;20530;-49
2021/01/25 03:25:10;;;;;;;17.00;14.07;;;2.10;99.90;;;;;;5007904;28;20484;-49
2021/01/25 03:27:37;;;;;;;20.73;14.03;;;2.10;99.90;;;;;;5007795;28;20546;-49
2021/01/25 03:30:08;;;;;;;21.70;16.73;;;2.20;99.90;;;;;;4996615;28;21001;-49
2021/01/25 03:32:42;;;;;;;18.33;14.60;;;2.20;99.90;;;;;;5006168;28;20472;-49
2021/01/25 03:35:12;;;;;;;18.60;14.43;;;2.10;99.90;;;;;;5007944;28;20523;-49
2021/01/25 03:37:40;;;;;;;20.03;14.33;;;2.10;99.90;;;;;;5007883;28;20542;-49
2021/01/25 03:40:09;;;;;;;17.63;14.70;;;2.10;99.90;;;;;;5013120;28;20481;-49
2021/01/25 03:42:37;;;;;;;16.93;14.67;;;2.10;99.90;;;;;;5008936;28;20476;-49
2021/01/25 03:45:06;;;;;;;18.47;14.47;;;2.10;99.90;;;;;;5008277;28;20470;-49
2021/01/25 03:47:34;;;;;;;17.97;13.40;;;2.10;99.90;;;;;;5008347;28;20516;-49
2021/01/25 03:50:02;;;;;;;15.13;13.57;;;2.00;99.90;;;;;;5008622;28;20475;-49
2021/01/25 03:52:31;;;;;;;19.57;13.40;;;2.10;99.90;;;;;;5008451;28;20551;-49
2021/01/25 03:54:59;;;;;;;18.17;15.87;;;2.10;99.90;;;;;;5006417;28;20476;-49
2021/01/25 03:57:27;;;;;;;18.30;14.90;;;2.10;99.90;;;;;;5007251;28;20463;-49
2021/01/25 03:59:54;;;;;;;19.57;16.13;;;2.10;99.90;;;;;;5007179;28;20876;-49
2021/01/25 04:02:22;;;;;;;20.63;15.33;;;2.10;99.90;;;;;;5008345;28;20496;-49
2021/01/25 04:04:51;;;;;;;19.40;15.60;;;2.10;99.90;;;;;;5007593;28;20477;-49
2021/01/25 04:07:18;;;;;;;19.73;14.90;;;2.20;99.90;;;;;;5005471;28;21003;-49
2021/01/25 04:09:46;;;;;;;17.83;14.47;;;2.10;99.90;;;;;;5007716;28;20480;-49
2021/01/25 04:12:15;;;;;;;17.10;14.43;;;2.00;99.90;;;;;;5005820;28;20535;-49
2021/01/25 04:14:42;;;;;;;16.73;13.80;;;2.00;99.90;;;;;;5005574;28;20479;-49
2021/01/25 04:17:11;;;;;;;15.73;13.17;;;2.00;99.90;;;;;;5005845;28;20956;-49
2021/01/25 04:19:38;;;;;;;19.23;15.20;;;2.00;99.90;;;;;;5006202;28;21008;-49
2021/01/25 04:22:06;;;;;;;17.50;14.67;;;2.10;99.90;;;;;;5006735;28;20476;-49
2021/01/25 04:24:33;;;;;;;17.80;14.50;;;2.00;99.90;;;;;;4999993;28;20539;-49
2021/01/25 04:27:01;;;;;;;14.27;12.77;;;2.00;99.90;;;;;;4987657;28;20473;-49
2021/01/25 04:29:29;;;;;;;17.00;13.70;;;2.10;99.90;;;;;;4992579;28;20533;-49
2021/01/25 04:31:57;;;;;;;19.52;17.30;;;2.00;99.90;;;;;;5025785;28;20472;-48
2021/01/25 04:34:24;;;;;;;16.87;14.10;;;2.10;99.90;;;;;;4997432;28;20315;-48
2021/01/25 04:36:51;;;;;;;16.33;12.90;;;2.00;99.90;;;;;;5007509;28;20473;-49
2021/01/25 04:39:19;;;;;;;14.47;12.27;;;2.00;99.90;;;;;;5007731;28;20534;-49
2021/01/25 04:41:47;;;;;;;15.77;13.33;;;2.00;99.90;;;;;;5007764;28;20578;-49
2021/01/25 04:44:15;;;;;;;18.53;14.43;;;2.10;99.90;;;;;;5009706;28;20480;-49
2021/01/25 04:46:44;;;;;;;17.60;14.33;;;2.30;99.90;;;;;;5007570;28;20980;-49
2021/01/25 04:49:14;;;;;;;19.40;15.83;;;2.40;99.90;;;;;;5007476;28;20481;-49
2021/01/25 04:51:43;;;;;;;17.63;14.07;;;2.20;99.90;;;;;;5007213;28;20506;-49
2021/01/25 04:54:11;;;;;;;22.53;16.73;;;2.20;99.90;;;;;;5006320;28;20885;-49
2021/01/25 04:56:39;;;;;;;19.10;15.50;;;2.10;99.90;;;;;;5006207;28;20567;-48
2021/01/25 04:59:06;;;;;;;20.33;15.07;;;2.00;99.90;;;;;;5008047;28;20934;-49
2021/01/25 05:01:34;;;;;;;22.87;14.97;;;2.00;99.90;;;;;;5008687;28;20466;-49
2021/01/25 05:04:03;;;;;;;17.67;14.53;;;2.00;99.90;;;;;;5010682;28;20492;-48
2021/01/25 05:06:30;;;;;;;14.87;12.57;;;2.00;99.90;;;;;;5010161;28;20909;-49
2021/01/25 05:08:58;;;;;;;18.50;14.93;;;2.00;99.90;;;;;;5009306;28;20988;-50
2021/01/25 05:11:25;;;;;;;17.30;14.00;;;2.00;99.90;;;;;;5010619;28;21039;-49
2021/01/25 05:14:03;;;;;;;19.93;16.73;;;2.10;99.90;;;;;;5010192;28;20484;-49
2021/01/25 05:16:32;;;;;;;22.03;16.83;;;2.20;99.90;;;;;;5010747;28;20567;-49
2021/01/25 05:19:04;;;;;;;22.87;16.67;;;2.00;99.90;;;;;;5010343;28;20476;-49
2021/01/25 05:21:34;;;;;;;18.83;15.53;;;2.00;99.90;;;;;;4991517;28;20470;-49
2021/01/25 05:24:06;;;;;;;18.40;15.50;;;2.00;99.90;;;;;;4990662;28;20477;-49
2021/01/25 05:26:35;;;;;;;19.73;15.70;;;1.90;99.90;;;;;;4997028;28;20493;-49
2021/01/25 05:29:03;;;;;;;20.83;14.70;;;1.90;99.90;;;;;;5010838;28;20564;-49
2021/01/25 05:31:30;;;;;;;21.33;15.33;;;1.90;99.90;;;;;;5010711;28;20555;-49
2021/01/25 05:33:58;;;;;;;17.50;14.70;;;1.90;99.90;;;;;;5010485;28;20591;-49
2021/01/25 05:36:30;;;;;;;17.20;15.17;;;1.90;99.90;;;;;;5023420;28;20495;-49
2021/01/25 05:38:57;;;;;;;19.57;14.43;;;1.90;99.90;;;;;;5029807;28;20474;-48
2021/01/25 05:41:25;;;;;;;16.60;14.27;;;1.80;99.90;;;;;;5030242;28;20578;-49
2021/01/25 05:43:52;;;;;;;20.63;15.23;;;1.90;99.90;;;;;;5030131;28;20607;-50
2021/01/25 05:46:20;;;;;;;18.60;14.30;;;1.90;99.90;;;;;;5029611;28;20505;-49
2021/01/25 05:48:59;;;;;;;19.83;14.57;;;1.80;99.90;;;;;;4992808;28;20572;-49
2021/01/25 05:51:32;;;;;;;24.60;18.23;;;2.10;99.90;;;;;;4990067;28;20473;-48
2021/01/25 05:54:02;;;;;;;26.13;17.80;;;2.20;99.90;;;;;;5002881;28;20481;-49
2021/01/25 05:56:30;;;;;;;29.17;18.70;;;2.00;99.90;;;;;;5009576;28;20509;-49
2021/01/25 05:58:57;;;;;;;36.57;21.93;;;2.00;99.90;;;;;;5009823;28;20551;-49
2021/01/25 06:01:25;;;;;;;35.00;22.83;;;2.10;99.90;;;;;;5009941;28;20491;-49
2021/01/25 06:03:55;;;;;;;30.57;21.33;;;1.90;99.90;;;;;;5008180;28;20530;-49
2021/01/25 06:06:30;;;;;;;29.60;20.27;;;1.90;99.90;;;;;;5004624;28;20487;-49
2021/01/25 06:09:07;;;;;;;33.03;21.50;;;2.00;99.90;;;;;;5009230;28;21008;-49
2021/01/25 06:11:36;;;;;;;39.40;24.43;;;2.10;99.90;;;;;;5009590;28;20549;-49
2021/01/25 06:14:10;;;;;;;38.67;24.87;;;2.10;99.90;;;;;;5008484;28;20958;-48
2021/01/25 06:16:37;;;;;;;34.93;23.47;;;2.00;99.90;;;;;;5006857;28;21054;-49
2021/01/25 06:19:09;;;;;;;41.00;22.33;;;2.00;99.90;;;;;;5003014;28;20897;-50
2021/01/25 06:21:41;;;;;;;38.00;25.87;;;2.40;99.90;;;;;;4987165;28;21056;-49
2021/01/25 06:24:12;;;;;;;42.83;24.40;;;2.20;99.90;;;;;;5003247;28;20493;-49
2021/01/25 06:26:41;;;;;;;44.47;25.97;;;2.10;99.90;;;;;;5012334;28;20869;-49
2021/01/25 06:29:09;;;;;;;40.97;24.00;;;1.90;99.90;;;;;;5005965;28;20479;-49
2021/01/25 06:31:38;;;;;;;43.47;28.43;;;2.20;99.90;;;;;;5006562;28;20481;-49
2021/01/25 06:34:10;;;;;;;41.80;27.23;;;2.10;99.90;;;;;;4999794;28;20492;-49
2021/01/25 06:36:40;;;;;;;40.07;26.80;;;2.00;99.90;;;;;;5011193;28;21225;-49
2021/01/25 06:39:09;;;;;;;40.23;25.47;;;1.90;99.90;;;;;;5007158;28;20820;-49
2021/01/25 06:41:38;;;;;;;36.20;23.77;;;1.90;99.90;;;;;;5005829;28;20513;-49
2021/01/25 06:44:07;;;;;;;41.27;27.83;;;1.90;99.90;;;;;;5006282;28;20494;-49
2021/01/25 06:46:37;;;;;;;37.50;26.07;;;1.80;99.90;;;;;;5005715;28;20478;-49
2021/01/25 06:49:06;;;;;;;34.33;23.40;;;1.80;99.90;;;;;;5005431;28;20460;-49
2021/01/25 06:51:41;;;;;;;33.23;23.10;;;1.80;99.90;;;;;;5002987;28;20555;-49
2021/01/25 06:54:12;;;;;;;30.27;22.17;;;1.80;99.90;;;;;;5003518;28;20476;-48
2021/01/25 06:56:51;;;;;;;32.00;21.80;;;1.70;99.90;;;;;;5005309;28;20472;-48
2021/01/25 06:59:21;;;;;;;31.03;21.37;;;1.70;99.90;;;;;;5005165;28;20684;-48
2021/01/25 07:01:53;;;;;;;32.07;22.67;;;1.70;99.90;;;;;;5004418;28;20496;-49
2021/01/25 07:04:23;;;;;;;33.20;23.97;;;1.70;99.90;;;;;;5002080;28;20517;-49
2021/01/25 07:06:53;;;;;;;36.10;23.20;;;1.80;99.90;;;;;;5004999;28;20506;-49
2021/01/25 07:09:27;;;;;;;32.70;23.30;;;1.80;99.90;;;;;;5005388;28;20488;-49
2021/01/25 07:11:58;;;;;;;32.63;23.07;;;1.80;99.90;;;;;;5002215;28;20757;-49
2021/01/25 07:14:27;;;;;;;38.60;24.47;;;1.80;99.90;;;;;;4985133;28;20560;-49
2021/01/25 07:16:57;;;;;;;41.03;23.20;;;1.70;99.90;;;;;;4985137;28;20497;-49
2021/01/25 07:19:26;;;;;;;37.30;23.50;;;1.60;99.90;;;;;;4985754;28;20923;-49
2021/01/25 07:21:55;;;;;;;38.77;23.90;;;1.60;99.90;;;;;;4985651;28;20496;-49
2021/01/25 07:24:25;;;;;;;38.13;24.57;;;1.60;99.90;;;;;;4984748;28;20494;-49
2021/01/25 07:26:59;;;;;;;43.77;26.40;;;1.60;99.90;;;;;;4985390;28;20485;-49
2021/01/25 07:29:28;;;;;;;42.83;25.90;;;1.60;99.90;;;;;;4998040;28;20486;-49
2021/01/25 07:31:58;;;;;;;39.33;25.03;;;1.60;99.90;;;;;;5010098;28;20481;-49
2021/01/25 07:34:29;;;;;;;36.47;24.63;;;1.60;99.90;;;;;;5003939;28;20489;-49
2021/01/25 07:36:58;;;;;;;37.47;24.33;;;1.60;99.90;;;;;;5013268;28;20480;-49
2021/01/25 07:39:27;;;;;;;35.47;23.63;;;1.60;99.90;;;;;;5004721;28;20472;-49
2021/01/25 07:41:57;;;;;;;33.87;22.93;;;1.70;99.90;;;;;;5016892;28;20519;-48
2021/01/25 07:44:25;;;;;;;35.80;23.10;;;1.70;99.90;;;;;;5020183;28;20487;-49
2021/01/25 07:47:03;;;;;;;33.00;21.67;;;1.60;99.90;;;;;;5006826;28;20476;-49
2021/01/25 07:49:31;;;;;;;35.83;21.70;;;1.60;99.90;;;;;;5001919;28;20805;-49
2021/01/25 07:52:00;;;;;;;36.63;22.33;;;1.60;99.90;;;;;;5004903;28;21003;-49
2021/01/25 07:54:30;;;;;;;32.37;21.87;;;1.70;99.90;;;;;;5003706;28;20511;-51
2021/01/25 07:56:59;;;;;;;32.50;21.00;;;1.60;99.90;;;;;;5004920;28;20464;-49
2021/01/25 07:59:34;;;;;;;33.17;21.03;;;1.60;99.90;;;;;;5003967;28;20898;-49
2021/01/25 08:02:04;;;;;;;31.30;20.33;;;1.60;99.90;;;;;;4999943;28;20468;-49
2021/01/25 08:04:37;;;;;;;31.17;20.77;;;1.70;99.90;;;;;;5004146;28;20511;-49
2021/01/25 08:07:05;;;;;;;31.40;20.57;;;1.70;99.90;;;;;;5004333;28;21023;-49
2021/01/25 08:09:57;;;;;;;31.53;19.67;;;1.70;99.90;;;;;;5004652;28;20476;-49
2021/01/25 08:12:25;;;;;;;27.30;18.97;;;1.70;99.90;;;;;;4997557;28;20477;-49
2021/01/25 08:15:00;;;;;;;24.83;17.57;;;1.70;99.90;;;;;;4984177;28;20584;-48
2021/01/25 08:17:33;;;;;;;24.83;17.10;;;1.60;99.90;;;;;;4984513;28;20518;-49
2021/01/25 08:20:08;;;;;;;25.70;16.67;;;1.60;99.90;;;;;;4985488;28;20477;-49
2021/01/25 08:22:42;;;;;;;22.10;16.23;;;1.60;99.90;;;;;;4985074;28;20504;-50
2021/01/25 08:25:37;;;;;;;23.00;16.70;;;1.50;99.90;;;;;;4979370;28;20492;-50
2021/01/25 08:28:10;;;;;;;22.23;15.93;;;1.50;99.90;;;;;;4999334;28;20472;-49
2021/01/25 08:30:41;;;;;;;19.17;14.77;;;1.50;99.90;;;;;;5000670;28;20481;-49
2021/01/25 08:33:11;;;;;;;18.83;14.63;;;1.50;99.90;;;;;;5000661;28;20528;-49
2021/01/25 08:35:53;;;;;;;20.27;15.13;;;1.60;99.90;;;;;;4999693;28;20492;-49
2021/01/25 08:38:27;;;;;;;17.47;14.43;;;1.60;99.90;;;;;;5005665;28;20579;-49
2021/01/25 08:40:58;;;;;;;18.33;13.63;;;1.70;99.90;;;;;;5008162;28;21039;-49
2021/01/25 08:43:28;;;;;;;17.53;13.40;;;1.70;99.90;;;;;;5009553;28;20991;-49
2021/01/25 08:46:10;;;;;;;20.80;14.03;;;1.60;99.90;;;;;;5007291;28;20486;-49
2021/01/25 08:48:37;;;;;;;16.20;13.27;;;1.60;99.90;;;;;;5003262;28;20961;-49
2021/01/25 08:51:11;;;;;;;17.83;14.33;;;1.60;99.90;;;;;;5010680;28;20479;-49
2021/01/25 08:53:39;;;;;;;20.57;14.80;;;1.60;99.90;;;;;;4988478;28;20475;-49
2021/01/25 08:56:15;;;;;;;17.67;14.00;;;1.60;99.90;;;;;;4991650;28;20476;-49
2021/01/25 08:58:43;;;;;;;18.37;14.33;;;1.70;99.90;;;;;;5006642;28;20904;-49
2021/01/25 09:01:17;;;;;;;16.73;14.00;;;1.70;99.90;;;;;;5006249;28;20901;-49
2021/01/25 09:03:45;;;;;;;19.43;15.30;;;1.70;99.90;;;;;;5007118;28;20563;-49
2021/01/25 09:06:13;;;;;;;18.17;14.27;;;1.70;99.90;;;;;;5007560;28;20505;-49
2021/01/25 09:08:40;;;;;;;19.77;14.93;;;1.70;99.90;;;;;;5007325;28;20784;-49
2021/01/25 09:11:08;;;;;;;19.43;15.17;;;1.70;99.90;;;;;;5008112;28;20549;-49
2021/01/25 09:13:35;;;;;;;20.10;15.80;;;1.70;99.90;;;;;;4990815;28;20529;-49
2021/01/25 09:16:03;;;;;;;20.63;15.63;;;1.80;99.90;;;;;;4987554;28;20504;-50
2021/01/25 09:18:31;;;;;;;21.80;15.93;;;1.90;99.90;;;;;;4987583;28;20482;-49
2021/01/25 09:20:59;;;;;;;21.30;16.70;;;1.90;99.90;;;;;;4987822;28;20725;-49
2021/01/25 09:23:26;;;;;;;23.03;17.20;;;1.90;99.90;;;;;;5002170;28;20558;-49
2021/01/25 09:25:53;;;;;;;25.07;18.00;;;1.90;99.90;;;;;;5006728;28;21056;-49
2021/01/25 09:28:21;;;;;;;24.03;18.60;;;1.90;99.90;;;;;;5006963;28;20844;-49
2021/01/25 09:30:49;;;;;;;27.00;19.73;;;1.90;99.90;;;;;;5007429;28;20475;-49
2021/01/25 09:33:16;;;;;;;27.57;19.63;;;1.90;99.90;;;;;;5006915;28;20505;-49
2021/01/25 09:35:45;;;;;;;29.53;20.67;;;2.10;99.90;;;;;;5006863;28;20477;-49
2021/01/25 09:38:12;;;;;;;29.03;21.93;;;2.00;99.90;;;;;;5018589;28;20840;-49
2021/01/25 09:40:40;;;;;;;30.60;20.13;;;1.90;99.90;;;;;;5026716;28;20903;-50
2021/01/25 09:43:07;;;;;;;31.33;21.57;;;1.90;99.90;;;;;;5015389;28;20948;-49
2021/01/25 09:45:34;;;;;;;29.07;19.97;;;1.90;99.90;;;;;;5004551;28;21050;-48
2021/01/25 09:48:04;;;;;;;29.10;18.87;;;1.80;99.90;;;;;;5006318;28;20560;-49
2021/01/25 09:50:33;;;;;;;32.70;19.47;;;1.80;99.90;;;;;;4995548;28;20533;-49
2021/01/25 09:53:01;;;;;;;28.53;20.07;;;1.80;99.90;;;;;;5005365;28;20464;-49
2021/01/25 09:55:28;;;;;;;29.43;20.03;;;1.80;99.90;;;;;;5006164;28;20905;-49
2021/01/25 09:57:56;;;;;;;27.40;20.00;;;1.90;99.90;;;;;;5005154;28;20905;-50
2021/01/25 10:00:25;;;;;;;28.70;21.60;;;1.80;99.90;;;;;;5006887;28;20580;-49
2021/01/25 10:02:52;;;;;;;28.20;20.07;;;1.90;99.90;;;;;;5006772;28;20505;-50
2021/01/25 10:05:20;;;;;;;31.53;20.87;;;1.80;99.90;;;;;;5006089;28;20506;-49
2021/01/25 10:07:47;;;;;;;31.20;20.47;;;1.80;99.90;;;;;;4998881;28;20469;-49
2021/01/25 10:10:17;;;;;;;29.80;20.60;;;1.90;99.90;;;;;;4992455;28;21310;-49
2021/01/25 10:12:44;;;;;;;28.37;20.47;;;1.90;99.90;;;;;;5004218;28;20538;-50
2021/01/25 10:15:15;;;;;;;31.60;20.77;;;1.90;99.90;;;;;;5005874;28;20483;-49
2021/01/25 10:17:44;;;;;;;29.00;20.63;;;1.90;99.90;;;;;;5006003;28;20931;-49
2021/01/25 10:20:13;;;;;;;28.90;19.87;;;2.00;99.90;;;;;;5005848;28;20491;-49
2021/01/25 10:22:43;;;;;;;27.87;20.40;;;2.10;99.90;;;;;;5006070;28;20566;-50
2021/01/25 10:25:13;;;;;;;28.20;20.47;;;2.10;99.90;;;;;;5003859;28;20539;-49
2021/01/25 10:27:41;;;;;;;28.73;21.37;;;2.10;99.90;;;;;;5003347;28;20506;-51
2021/01/25 10:30:11;;;;;;;31.23;21.97;;;2.20;99.90;;;;;;5006463;28;20750;-49
2021/01/25 10:32:39;;;;;;;31.97;22.53;;;2.40;99.90;;;;;;5005469;28;20480;-50
2021/01/25 10:35:08;;;;;;;32.60;23.23;;;2.30;99.90;;;;;;5005828;28;20480;-49
2021/01/25 10:37:41;;;;;;;34.60;21.53;;;2.40;99.90;;;;;;4997414;28;20527;-49
2021/01/25 10:40:11;;;;;;;30.47;21.40;;;2.50;99.90;;;;;;4996375;28;20492;-49
2021/01/25 10:42:38;;;;;;;30.67;22.07;;;2.50;99.90;;;;;;5000292;28;20551;-49
2021/01/25 10:45:08;;;;;;;31.13;21.83;;;2.70;99.90;;;;;;5005153;28;20506;-49
2021/01/25 10:47:36;;;;;;;28.17;19.60;;;2.80;99.90;;;;;;4997861;28;20480;-49
2021/01/25 10:50:10;;;;;;;25.87;19.20;;;2.70;99.90;;;;;;5007434;28;20482;-49
2021/01/25 10:52:43;;;;;;;25.10;19.70;;;2.80;99.90;;;;;;5001483;28;20797;-49
2021/01/25 10:55:12;;;;;;;28.77;19.00;;;2.80;99.90;;;;;;4996869;28;20499;-50
2021/01/25 10:57:40;;;;;;;28.73;21.03;;;2.80;99.90;;;;;;5005665;28;20470;-49
2021/01/25 11:00:12;;;;;;;24.60;18.17;;;2.90;99.90;;;;;;5005371;28;20540;-49
2021/01/25 11:02:39;;;;;;;23.10;17.63;;;2.90;99.90;;;;;;5005903;28;21055;-49
2021/01/25 11:05:10;;;;;;;21.13;17.23;;;3.00;99.90;;;;;;5005552;28;20477;-49
2021/01/25 11:07:38;;;;;;;27.43;17.57;;;3.10;99.90;;;;;;5005572;28;20487;-49
2021/01/25 11:10:08;;;;;;;22.17;17.63;;;3.10;99.90;;;;;;5005272;28;20479;-49
2021/01/25 11:12:36;;;;;;;22.70;17.03;;;3.30;99.90;;;;;;5005477;28;20570;-50
2021/01/25 11:15:05;;;;;;;22.27;16.73;;;3.50;99.90;;;;;;5002120;28;20818;-49
2021/01/25 11:17:34;;;;;;;22.13;17.50;;;3.70;99.90;;;;;;5001478;28;20475;-49
2021/01/25 11:20:02;;;;;;;21.93;16.20;;;3.80;99.90;;;;;;4993200;28;20559;-49
2021/01/25 11:22:29;;;;;;;22.07;16.50;;;3.80;99.90;;;;;;4992234;28;20558;-49
2021/01/25 11:24:57;;;;;;;21.83;16.80;;;4.00;99.90;;;;;;4993007;28;20574;-49
2021/01/25 11:27:24;;;;;;;22.53;17.30;;;4.20;99.90;;;;;;4995541;28;20505;-49
2021/01/25 11:29:52;;;;;;;22.60;16.43;;;4.30;99.90;;;;;;4995228;28;20525;-49
2021/01/25 11:32:19;;;;;;;21.10;16.03;;;4.30;99.90;;;;;;4992806;28;20515;-50
2021/01/25 11:34:47;;;;;;;23.43;16.20;;;4.30;99.90;;;;;;4990018;28;21009;-49
2021/01/25 11:37:15;;;;;;;21.20;16.47;;;4.30;99.90;;;;;;4990837;28;20567;-49
2021/01/25 11:39:43;;;;;;;19.83;15.43;;;4.20;99.90;;;;;;4991287;28;20538;-50
2021/01/25 11:42:11;;;;;;;22.27;16.53;;;4.20;99.90;;;;;;4992126;28;20808;-50
2021/01/25 11:44:39;;;;;;;18.80;16.00;;;4.10;99.90;;;;;;4993337;28;20479;-49
2021/01/25 11:47:07;;;;;;;20.97;16.33;;;4.10;99.90;;;;;;4992350;28;20476;-49
2021/01/25 11:49:35;;;;;;;21.70;16.43;;;3.90;99.90;;;;;;4991922;28;20517;-49
2021/01/25 11:52:03;;;;;;;23.23;15.93;;;3.70;99.90;;;;;;4990160;28;20753;-49
2021/01/25 11:54:33;;;;;;;21.93;17.13;;;3.70;99.90;;;;;;4992496;28;21051;-50
2021/01/25 11:57:00;;;;;;;23.70;16.37;;;3.60;99.90;;;;;;4992237;28;20482;-49
2021/01/25 11:59:28;;;;;;;22.37;17.17;;;3.50;99.90;;;;;;4992408;28;20524;-49
2021/01/25 12:01:55;;;;;;;21.20;16.67;;;3.50;99.90;;;;;;4996078;28;20477;-49
2021/01/25 12:04:22;;;;;;;21.40;16.07;;;3.40;99.90;;;;;;4999935;28;20489;-49
2021/01/25 12:06:52;;;;;;;19.83;16.13;;;3.50;99.90;;;;;;5002528;28;21001;-49
2021/01/25 12:09:21;;;;;;;21.63;15.77;;;3.50;99.90;;;;;;5000171;28;20579;-49
2021/01/25 12:11:48;;;;;;;20.70;15.57;;;3.50;99.90;;;;;;4997884;28;21110;-49
2021/01/25 12:14:16;;;;;;;22.07;16.13;;;3.50;99.90;;;;;;4994037;28;20982;-49
2021/01/25 12:16:44;;;;;;;20.37;15.70;;;3.40;99.90;;;;;;4993041;28;20480;-49
2021/01/25 12:19:12;;;;;;;21.23;15.93;;;3.40;99.90;;;;;;5004909;28;20665;-49
2021/01/25 12:21:40;;;;;;;21.50;16.27;;;3.30;99.90;;;;;;5008296;28;20558;-49
2021/01/25 12:24:08;;;;;;;22.20;16.50;;;3.20;99.90;;;;;;5016137;28;21048;-49
2021/01/25 12:26:44;;;;;;;20.90;15.15;;;3.20;99.90;;;;;;3267287;28;10023133;-49
2021/01/25 12:29:11;;;;;;;21.52;15.88;;;3.20;99.90;;;;;;2935738;28;10002103;-49
2021/01/25 12:31:38;;;;;;;20.13;15.23;;;3.10;99.90;;;;;;5007858;28;20332;-49
2021/01/25 12:34:07;;;;;;;20.63;14.83;;;3.00;99.90;;;;;;5006554;28;20487;-49
2021/01/25 12:36:34;;;;;;;20.23;15.27;;;3.00;99.90;;;;;;5009387;28;20639;-49
2021/01/25 12:39:02;;;;;;;21.73;14.80;;;2.90;99.90;;;;;;5005809;28;20941;-49
2021/01/25 12:41:29;;;;;;;19.47;14.17;;;2.90;99.90;;;;;;5006883;28;20483;-49
2021/01/25 12:43:58;;;;;;;21.30;14.87;;;2.90;99.90;;;;;;5002565;28;20472;-49
2021/01/25 12:46:26;;;;;;;21.60;15.23;;;2.90;99.90;;;;;;5014674;28;20488;-49
2021/01/25 12:48:54;;;;;;;20.10;15.33;;;2.90;99.90;;;;;;5005233;28;20530;-49
2021/01/25 12:51:21;;;;;;;22.13;14.93;;;3.00;99.90;;;;;;4999708;28;20475;-49